Time;durP1;ratioP1;P1;durP2;ratioP2;P2;SDS_P1;SDS_P2;PMS_P1;PMS_P2;Temp;Humidity;BMP_temperature;BMP_pressure;BME280_temperature;BME280_humidity;BME280_pressure;Samples;Min_cycle;Max_cycle;Signal;HPM_P1;HPM_P2
2022/11/02 00:01:43;;;;;;;9.65;3.75;;;12.70;99.90;;;;;;5075873;28;20631;-64
2022/11/02 00:04:10;;;;;;;14.40;3.55;;;12.70;99.90;;;;;;5074283;28;20181;-64
2022/11/02 00:06:36;;;;;;;6.40;3.75;;;12.80;99.90;;;;;;5075370;28;20190;-65
2022/11/02 00:09:02;;;;;;;10.57;3.83;;;12.80;99.90;;;;;;5075728;28;20289;-64
2022/11/02 00:11:27;;;;;;;11.48;3.85;;;12.80;99.90;;;;;;5075379;28;20178;-65
2022/11/02 00:13:53;;;;;;;12.40;3.30;;;12.80;99.90;;;;;;5075734;28;20201;-64
2022/11/02 00:16:21;;;;;;;16.27;4.82;;;12.90;99.90;;;;;;5074073;28;20206;-68
2022/11/02 00:18:52;;;;;;;14.27;3.63;;;12.90;99.90;;;;;;5075294;28;20178;-69
2022/11/02 00:21:20;;;;;;;10.65;3.83;;;12.90;99.90;;;;;;5074037;28;20174;-69
2022/11/02 00:23:46;;;;;;;11.23;3.42;;;12.90;99.90;;;;;;5073854;28;20280;-65
2022/11/02 00:26:12;;;;;;;16.15;3.95;;;13.00;99.90;;;;;;5075341;28;20618;-65
2022/11/02 00:28:38;;;;;;;8.63;3.40;;;13.10;99.90;;;;;;5074839;28;20292;-65
2022/11/02 00:31:04;;;;;;;11.50;3.53;;;13.10;99.90;;;;;;5075038;28;20174;-65
2022/11/02 00:33:30;;;;;;;14.05;3.33;;;13.10;99.90;;;;;;5075048;28;20178;-65
2022/11/02 00:35:56;;;;;;;9.75;3.60;;;13.10;99.90;;;;;;5075173;28;20193;-65
2022/11/02 00:38:22;;;;;;;11.25;3.40;;;13.10;99.90;;;;;;5074798;28;20185;-65
2022/11/02 00:40:48;;;;;;;6.68;3.20;;;13.20;99.90;;;;;;5075208;28;20182;-65
2022/11/02 00:43:13;;;;;;;7.90;3.30;;;13.20;99.90;;;;;;5074824;28;20274;-65
2022/11/02 00:45:39;;;;;;;8.95;3.80;;;13.10;99.90;;;;;;5073350;28;20225;-65
2022/11/02 00:48:05;;;;;;;9.88;3.47;;;13.20;99.90;;;;;;5074572;28;20205;-65
2022/11/02 00:50:31;;;;;;;8.45;3.38;;;13.20;99.90;;;;;;5074965;28;20614;-65
2022/11/02 00:52:57;;;;;;;9.05;3.47;;;13.20;99.90;;;;;;5074453;28;20662;-65
2022/11/02 00:55:23;;;;;;;11.95;4.32;;;13.20;99.90;;;;;;5074492;28;20197;-65
2022/11/02 00:57:48;;;;;;;9.40;3.80;;;13.20;99.90;;;;;;5074542;28;20182;-65
2022/11/02 01:00:16;;;;;;;12.70;4.22;;;13.20;99.90;;;;;;5073193;28;20186;-65
2022/11/02 01:02:42;;;;;;;12.38;3.42;;;13.20;99.90;;;;;;5074715;28;20182;-65
2022/11/02 01:05:09;;;;;;;16.58;3.50;;;13.10;99.90;;;;;;5074283;28;20236;-65
2022/11/02 01:07:34;;;;;;;9.88;3.20;;;13.00;99.90;;;;;;5074046;28;20665;-65
2022/11/02 01:10:00;;;;;;;8.80;3.40;;;12.90;99.90;;;;;;5074878;28;20231;-68
2022/11/02 01:12:26;;;;;;;14.85;4.30;;;12.90;99.90;;;;;;5074338;28;20182;-68
2022/11/02 01:14:52;;;;;;;9.25;3.78;;;12.80;99.90;;;;;;5074350;28;20524;-68
2022/11/02 01:17:18;;;;;;;11.63;3.92;;;12.80;99.90;;;;;;5074187;28;20180;-64
2022/11/02 01:19:44;;;;;;;12.52;3.83;;;12.80;99.90;;;;;;5074150;28;20180;-65
2022/11/02 01:22:10;;;;;;;14.23;4.05;;;12.70;99.90;;;;;;5073831;28;20196;-65
2022/11/02 01:24:35;;;;;;;7.30;3.60;;;12.70;99.90;;;;;;5074482;28;20201;-64
2022/11/02 01:27:01;;;;;;;13.27;4.28;;;12.70;99.90;;;;;;5073825;28;20689;-64
2022/11/02 01:29:27;;;;;;;9.40;3.70;;;12.70;99.90;;;;;;5074139;28;20726;-64
2022/11/02 01:31:53;;;;;;;12.65;3.67;;;12.70;99.90;;;;;;5073787;28;20253;-64
2022/11/02 01:34:20;;;;;;;12.95;4.20;;;12.70;99.90;;;;;;5073950;28;20264;-64
2022/11/02 01:36:46;;;;;;;7.63;3.63;;;12.70;99.90;;;;;;5073851;28;20223;-65
2022/11/02 01:39:13;;;;;;;8.60;4.10;;;12.70;99.90;;;;;;5074510;28;20548;-65
2022/11/02 01:41:39;;;;;;;13.60;4.00;;;12.70;99.90;;;;;;5073333;28;20189;-65
2022/11/02 01:44:32;;;;;;;10.13;3.53;;;12.70;99.90;;;;;;5073906;28;20186;-65
2022/11/02 01:47:12;;;;;;;9.45;3.28;;;12.70;99.90;;;;;;5073842;28;20194;-65
2022/11/02 01:49:41;;;;;;;10.40;3.97;;;12.70;99.90;;;;;;5072327;28;20223;-65
2022/11/02 01:52:13;;;;;;;10.13;3.77;;;12.70;99.90;;;;;;5073442;28;20178;-65
2022/11/02 01:54:52;;;;;;;12.17;3.77;;;12.70;99.90;;;;;;5073501;28;20223;-65
2022/11/02 01:57:20;;;;;;;12.50;4.20;;;12.70;99.90;;;;;;5074155;28;20513;-65
2022/11/02 02:00:08;;;;;;;14.00;4.13;;;12.70;99.90;;;;;;5073628;28;20177;-65
2022/11/02 02:02:39;;;;;;;11.30;4.00;;;12.70;99.90;;;;;;5073741;28;20181;-65
2022/11/02 02:05:08;;;;;;;7.97;3.70;;;12.70;99.90;;;;;;5073463;28;20194;-65
2022/11/02 02:07:37;;;;;;;8.02;3.15;;;12.60;99.90;;;;;;5073207;28;20198;-65
2022/11/02 02:10:04;;;;;;;15.40;3.50;;;12.60;99.90;;;;;;5073368;28;20182;-65
2022/11/02 02:12:31;;;;;;;12.45;3.97;;;12.60;99.90;;;;;;5083442;28;20219;-68
2022/11/02 02:14:58;;;;;;;14.65;3.97;;;12.60;99.90;;;;;;5093825;28;20180;-68
2022/11/02 02:17:30;;;;;;;10.90;3.35;;;12.70;99.90;;;;;;5093775;28;20169;-69
2022/11/02 02:20:18;;;;;;;10.05;3.67;;;12.60;99.90;;;;;;5093576;28;20255;-69
2022/11/02 02:22:46;;;;;;;15.02;3.60;;;12.70;99.90;;;;;;5092216;28;20585;-69
2022/11/02 02:25:57;;;;;;;8.95;3.80;;;12.70;99.90;;;;;;5093652;28;20201;-69
2022/11/02 02:28:52;;;;;;;9.95;3.83;;;12.70;99.90;;;;;;5094010;28;20193;-69
2022/11/02 02:31:30;;;;;;;9.70;3.85;;;12.80;99.90;;;;;;5093408;28;20180;-69
2022/11/02 02:34:16;;;;;;;8.65;3.10;;;12.80;99.90;;;;;;5093548;28;20681;-69
2022/11/02 02:36:55;;;;;;;7.10;3.40;;;12.80;99.90;;;;;;5093191;28;20215;-68
2022/11/02 02:39:28;;;;;;;12.88;3.75;;;12.80;99.90;;;;;;5092230;28;20204;-69
2022/11/02 02:42:10;;;;;;;10.13;4.18;;;12.80;99.90;;;;;;5093612;28;20642;-65
2022/11/02 02:44:41;;;;;;;9.13;3.63;;;12.80;99.90;;;;;;5093100;28;20269;-65
2022/11/02 02:47:17;;;;;;;10.65;3.80;;;12.80;99.90;;;;;;5093696;28;20613;-65
2022/11/02 02:50:09;;;;;;;9.43;3.80;;;12.80;99.90;;;;;;5093180;28;20169;-65
2022/11/02 02:52:37;;;;;;;8.38;3.58;;;12.80;99.90;;;;;;5094815;28;20606;-65
2022/11/02 02:55:05;;;;;;;10.93;3.40;;;12.80;99.90;;;;;;5097136;28;20225;-64
2022/11/02 02:57:34;;;;;;;11.93;3.50;;;12.80;99.90;;;;;;5095837;28;20213;-65
2022/11/02 02:59:59;;;;;;;9.27;3.40;;;12.80;99.90;;;;;;5097120;28;20191;-64
2022/11/02 03:02:32;;;;;;;9.30;3.42;;;12.80;99.90;;;;;;5097324;28;20264;-65
2022/11/02 03:04:58;;;;;;;9.30;3.63;;;12.70;99.90;;;;;;5096944;28;20187;-65
2022/11/02 03:07:30;;;;;;;12.80;3.65;;;12.70;99.90;;;;;;5096807;28;20664;-65
2022/11/02 03:09:59;;;;;;;14.23;4.15;;;12.70;99.90;;;;;;5096809;28;20169;-65
2022/11/02 03:13:03;;;;;;;10.07;3.67;;;12.70;99.90;;;;;;5096756;28;20552;-65
2022/11/02 03:15:33;;;;;;;9.68;3.63;;;12.60;99.90;;;;;;5078816;28;20211;-65
2022/11/02 03:18:37;;;;;;;8.68;3.47;;;12.70;99.90;;;;;;5097418;28;20196;-64
2022/11/02 03:21:22;;;;;;;9.25;4.78;;;12.70;99.90;;;;;;5096533;28;20254;-64
2022/11/02 03:24:06;;;;;;;11.02;3.33;;;12.60;99.90;;;;;;5095270;28;20181;-64
2022/11/02 03:27:00;;;;;;;11.03;3.47;;;12.60;99.90;;;;;;5096791;28;20201;-64
2022/11/02 03:29:58;;;;;;;13.63;3.87;;;12.60;99.90;;;;;;5096917;28;20250;-65
2022/11/02 03:32:39;;;;;;;11.30;3.58;;;12.50;99.90;;;;;;5095757;28;20197;-65
2022/11/02 03:35:14;;;;;;;9.00;3.90;;;12.50;99.90;;;;;;5096728;28;20189;-64
2022/11/02 03:38:04;;;;;;;11.35;3.65;;;12.50;99.90;;;;;;5096387;28;20164;-65
2022/11/02 03:40:38;;;;;;;7.35;3.58;;;12.50;99.90;;;;;;5096740;28;20165;-65
2022/11/02 03:43:05;;;;;;;10.30;4.32;;;12.50;99.90;;;;;;5096378;28;20181;-65
2022/11/02 03:45:37;;;;;;;9.68;3.72;;;12.60;99.90;;;;;;5096071;28;20300;-65
2022/11/02 03:48:07;;;;;;;11.63;4.53;;;12.50;99.90;;;;;;5096351;28;20197;-65
2022/11/02 03:50:36;;;;;;;8.82;4.13;;;12.50;99.90;;;;;;5094772;28;20260;-65
2022/11/02 03:53:34;;;;;;;8.10;3.95;;;12.50;99.90;;;;;;5094649;28;20586;-65
2022/11/02 03:56:07;;;;;;;11.77;3.90;;;12.40;99.90;;;;;;5095152;28;20209;-65
2022/11/02 03:58:34;;;;;;;12.75;3.90;;;12.40;99.90;;;;;;5096336;28;20174;-65
2022/11/02 04:01:03;;;;;;;10.70;3.60;;;12.40;99.90;;;;;;5094643;28;20695;-65
2022/11/02 04:03:31;;;;;;;11.35;3.90;;;12.40;99.90;;;;;;5093665;28;20209;-65
2022/11/02 04:05:56;;;;;;;10.15;3.80;;;12.40;99.90;;;;;;5095669;28;20196;-65
2022/11/02 04:08:34;;;;;;;9.57;3.67;;;12.40;99.90;;;;;;5095585;28;20723;-65
2022/11/02 04:16:30;;;;;;;11.67;4.13;;;12.20;99.90;;;;;;5094463;28;20233;-65
2022/11/02 04:25:14;;;;;;;9.90;3.70;;;12.20;99.90;;;;;;5095556;28;20172;-65
2022/11/02 04:27:10;;;;;;;15.90;3.93;;;12.20;99.90;;;;;;5095799;28;20212;-64
2022/11/02 04:29:36;;;;;;;8.98;3.85;;;12.20;99.90;;;;;;5094554;28;20177;-65
2022/11/02 04:32:01;;;;;;;12.80;4.20;;;12.20;99.90;;;;;;5095455;28;20197;-65
2022/11/02 04:34:27;;;;;;;11.40;4.20;;;12.20;99.90;;;;;;5095261;28;20588;-64
2022/11/02 04:36:53;;;;;;;10.90;4.03;;;12.20;99.90;;;;;;5095007;28;20706;-65
2022/11/02 04:39:19;;;;;;;10.02;4.30;;;12.20;99.90;;;;;;5093733;28;20177;-65
2022/11/02 04:41:45;;;;;;;9.30;4.00;;;12.20;99.90;;;;;;5095004;28;20177;-65
2022/11/02 04:44:15;;;;;;;8.30;3.87;;;12.20;99.90;;;;;;5095016;28;20692;-65
2022/11/02 04:46:43;;;;;;;11.50;3.93;;;12.20;99.90;;;;;;5095377;28;20184;-64
2022/11/02 04:49:10;;;;;;;8.00;3.50;;;12.10;99.90;;;;;;5094839;28;20250;-65
2022/11/02 04:51:36;;;;;;;14.53;3.97;;;12.10;99.90;;;;;;5095335;28;20226;-65
2022/11/02 04:54:02;;;;;;;10.70;3.63;;;12.10;99.90;;;;;;5093484;28;20184;-65
2022/11/02 04:56:28;;;;;;;11.87;3.93;;;12.10;99.90;;;;;;5094678;28;20189;-65
2022/11/02 04:58:56;;;;;;;13.23;3.65;;;12.10;99.90;;;;;;5094886;28;20184;-65
2022/11/02 05:01:24;;;;;;;11.23;4.17;;;12.10;99.90;;;;;;5094950;28;20754;-65
2022/11/02 05:03:51;;;;;;;9.87;3.73;;;12.10;99.90;;;;;;5094682;28;20306;-65
2022/11/02 05:06:19;;;;;;;9.87;3.80;;;12.10;99.90;;;;;;5094797;28;20287;-65
2022/11/02 05:08:45;;;;;;;10.87;4.07;;;12.10;99.90;;;;;;5094364;28;20201;-65
2022/11/02 05:11:12;;;;;;;13.70;4.07;;;12.00;99.90;;;;;;5094515;28;20167;-67
2022/11/02 05:13:39;;;;;;;9.43;4.65;;;12.00;99.90;;;;;;5094502;28;20210;-65
2022/11/02 05:16:06;;;;;;;9.10;3.70;;;12.00;99.90;;;;;;5094148;28;20195;-64
2022/11/02 05:18:32;;;;;;;13.40;4.33;;;12.00;99.90;;;;;;5094380;28;20234;-65
2022/11/02 05:20:59;;;;;;;7.57;3.70;;;11.90;99.90;;;;;;5094236;28;20177;-65
2022/11/02 05:23:26;;;;;;;6.07;3.47;;;12.00;99.90;;;;;;5094226;28;20177;-65
2022/11/02 05:26:00;;;;;;;16.07;4.43;;;12.00;99.90;;;;;;5094165;28;20219;-66
2022/11/02 05:28:27;;;;;;;9.47;3.90;;;12.00;99.90;;;;;;5094504;28;20239;-65
2022/11/02 05:30:54;;;;;;;7.17;3.90;;;12.10;99.90;;;;;;5094140;28;20201;-65
2022/11/02 05:33:20;;;;;;;16.43;4.10;;;12.10;99.90;;;;;;5094087;28;20177;-65
2022/11/02 05:35:46;;;;;;;8.57;3.73;;;12.10;99.90;;;;;;5093978;28;20204;-65
2022/11/02 05:38:12;;;;;;;11.07;3.70;;;12.10;99.90;;;;;;5094060;28;20226;-65
2022/11/02 05:40:39;;;;;;;10.10;4.55;;;12.10;99.90;;;;;;5094295;28;20177;-65
2022/11/02 05:43:08;;;;;;;8.20;3.92;;;12.10;99.90;;;;;;5093862;28;20272;-66
2022/11/02 05:45:35;;;;;;;8.95;3.85;;;12.10;99.90;;;;;;5093649;28;20213;-66
2022/11/02 05:48:02;;;;;;;10.95;3.80;;;12.20;99.90;;;;;;5093707;28;20193;-67
2022/11/02 05:50:28;;;;;;;5.93;3.63;;;12.20;99.90;;;;;;5093869;28;20544;-66
2022/11/02 05:52:55;;;;;;;11.53;4.00;;;12.10;99.90;;;;;;5093826;28;20260;-66
2022/11/02 05:55:21;;;;;;;12.77;3.80;;;12.10;99.90;;;;;;5093823;28;20193;-69
2022/11/02 05:57:51;;;;;;;9.97;4.07;;;12.20;99.90;;;;;;5092598;28;20188;-69
2022/11/02 06:00:17;;;;;;;14.03;4.00;;;12.20;99.90;;;;;;5094018;28;20173;-69
2022/11/02 06:02:42;;;;;;;8.38;3.67;;;12.20;99.90;;;;;;5093967;28;20165;-70
2022/11/02 06:05:08;;;;;;;11.73;4.10;;;12.20;99.90;;;;;;5093600;28;20568;-69
2022/11/02 06:07:34;;;;;;;11.98;4.05;;;12.30;99.90;;;;;;5093422;28;20201;-69
2022/11/02 06:10:01;;;;;;;18.03;4.23;;;12.30;99.90;;;;;;5093752;28;20195;-69
2022/11/02 06:12:27;;;;;;;12.67;3.90;;;12.20;99.90;;;;;;5093311;28;20641;-68
2022/11/02 06:14:52;;;;;;;6.97;3.70;;;12.20;99.90;;;;;;5093305;28;20188;-69
2022/11/02 06:17:18;;;;;;;8.83;4.33;;;12.10;99.90;;;;;;5093442;28;20184;-69
2022/11/02 06:19:44;;;;;;;13.60;4.40;;;12.10;99.90;;;;;;5093536;28;20654;-69
2022/11/02 06:22:10;;;;;;;12.17;3.87;;;12.10;99.90;;;;;;5093441;28;20672;-69
2022/11/02 06:24:35;;;;;;;11.73;4.47;;;12.10;99.90;;;;;;5093312;28;20188;-69
2022/11/02 06:27:01;;;;;;;19.00;4.30;;;12.10;99.90;;;;;;5094181;28;20200;-65
2022/11/02 06:29:27;;;;;;;11.00;4.20;;;12.00;99.90;;;;;;5097538;28;20173;-65
2022/11/02 06:31:52;;;;;;;10.97;4.10;;;12.10;99.90;;;;;;5097456;28;20169;-65
2022/11/02 06:34:18;;;;;;;21.08;4.22;;;12.10;99.90;;;;;;5097771;28;20177;-65
2022/11/02 06:36:44;;;;;;;8.87;3.43;;;12.10;99.90;;;;;;5097463;28;20254;-65
2022/11/02 06:39:09;;;;;;;10.43;3.87;;;12.10;99.90;;;;;;5097228;28;20272;-65
2022/11/02 06:41:35;;;;;;;8.43;4.17;;;12.10;99.90;;;;;;5096027;28;20722;-65
2022/11/02 06:44:01;;;;;;;13.03;4.10;;;12.20;99.90;;;;;;5097456;28;20193;-65
2022/11/02 06:46:26;;;;;;;8.50;3.90;;;12.20;99.90;;;;;;5097405;28;20615;-65
2022/11/02 06:48:53;;;;;;;10.93;4.10;;;12.20;99.90;;;;;;5097205;28;20683;-65
2022/11/02 06:51:19;;;;;;;9.73;3.90;;;12.10;99.90;;;;;;5097262;28;20652;-65
2022/11/02 06:53:44;;;;;;;11.27;3.87;;;12.10;99.90;;;;;;5097058;28;20169;-65
2022/11/02 06:56:11;;;;;;;8.40;3.40;;;12.10;99.90;;;;;;5095752;28;20661;-65
2022/11/02 06:58:37;;;;;;;10.43;3.83;;;12.10;99.90;;;;;;5097266;28;20181;-64
2022/11/02 07:01:06;;;;;;;7.80;4.07;;;12.10;99.90;;;;;;5097089;28;20232;-65
2022/11/02 07:03:32;;;;;;;12.05;4.78;;;12.10;99.90;;;;;;5097033;28;20180;-65
2022/11/02 07:05:58;;;;;;;15.77;4.13;;;12.10;99.90;;;;;;5096841;28;20196;-65
2022/11/02 07:08:26;;;;;;;13.40;4.07;;;12.20;99.90;;;;;;5096743;28;20654;-65
2022/11/02 07:10:52;;;;;;;11.30;3.87;;;12.20;99.90;;;;;;5095483;28;20177;-65
2022/11/02 07:13:18;;;;;;;10.45;3.60;;;12.30;99.90;;;;;;5095418;28;20192;-64
2022/11/02 07:15:43;;;;;;;9.87;3.77;;;12.30;99.90;;;;;;5096636;28;20611;-65
2022/11/02 07:18:09;;;;;;;8.83;3.37;;;12.30;99.90;;;;;;5096948;28;20165;-65
2022/11/02 07:20:35;;;;;;;6.70;3.35;;;12.30;99.90;;;;;;5096589;28;20185;-64
2022/11/02 07:23:02;;;;;;;9.35;3.33;;;12.30;99.90;;;;;;5096480;28;20188;-65
2022/11/02 07:25:33;;;;;;;12.73;3.40;;;12.30;99.90;;;;;;5096459;28;20196;-64
2022/11/02 07:28:00;;;;;;;11.32;3.80;;;12.40;99.90;;;;;;5096682;28;20202;-64
2022/11/02 07:30:30;;;;;;;7.45;3.83;;;12.40;99.90;;;;;;5096513;28;20169;-65
2022/11/02 07:32:56;;;;;;;12.85;3.95;;;12.40;99.90;;;;;;5096992;28;20185;-64
2022/11/02 07:35:21;;;;;;;11.40;3.90;;;12.40;99.90;;;;;;5094964;28;20233;-64
2022/11/02 07:38:00;;;;;;;15.73;3.63;;;12.40;99.90;;;;;;5096151;28;20264;-64
2022/11/02 07:40:27;;;;;;;10.38;3.55;;;12.40;99.90;;;;;;5095006;28;20216;-64
2022/11/02 07:42:52;;;;;;;10.57;3.80;;;12.40;99.90;;;;;;5096118;28;20189;-64
2022/11/02 07:45:20;;;;;;;8.70;3.38;;;12.40;99.90;;;;;;5094701;28;20295;-65
2022/11/02 07:47:47;;;;;;;9.03;3.70;;;12.40;99.90;;;;;;5096089;28;20193;-65
2022/11/02 07:50:14;;;;;;;11.82;3.90;;;12.40;99.90;;;;;;5096094;28;20642;-65
2022/11/02 07:52:51;;;;;;;10.45;4.28;;;12.40;99.90;;;;;;5096075;28;20724;-65
2022/11/02 07:55:19;;;;;;;12.60;3.83;;;12.50;99.90;;;;;;5095983;28;20189;-65
2022/11/02 07:57:55;;;;;;;11.25;3.63;;;12.50;99.90;;;;;;5095901;28;20173;-65
2022/11/02 08:00:20;;;;;;;12.00;3.95;;;12.50;99.90;;;;;;5095886;28;20177;-64
2022/11/02 08:02:46;;;;;;;8.60;3.20;;;12.50;99.90;;;;;;5094533;28;20199;-64
2022/11/02 08:05:12;;;;;;;10.57;3.93;;;12.50;99.90;;;;;;5095742;28;20197;-65
2022/11/02 08:07:37;;;;;;;10.30;3.60;;;12.50;99.90;;;;;;5094235;28;20205;-65
2022/11/02 08:10:04;;;;;;;17.77;3.90;;;12.50;99.90;;;;;;5096180;28;20572;-64
2022/11/02 08:12:29;;;;;;;12.63;3.83;;;12.50;99.90;;;;;;5095768;28;20185;-65
2022/11/02 08:14:56;;;;;;;9.88;3.70;;;12.50;99.90;;;;;;5094185;28;20546;-65
2022/11/02 08:17:23;;;;;;;16.38;4.18;;;12.40;99.90;;;;;;5095499;28;20175;-64
2022/11/02 08:19:48;;;;;;;11.95;3.90;;;12.40;99.90;;;;;;5096049;28;20157;-64
2022/11/02 08:22:14;;;;;;;12.98;4.63;;;12.40;99.90;;;;;;5095347;28;20264;-64
2022/11/02 08:24:40;;;;;;;9.75;3.95;;;12.30;99.90;;;;;;5095370;28;20177;-64
2022/11/02 08:27:06;;;;;;;13.70;3.93;;;12.40;99.90;;;;;;5095140;28;20344;-65
2022/11/02 08:29:31;;;;;;;14.15;3.78;;;12.40;99.90;;;;;;5095286;28;20187;-65
2022/11/02 08:31:57;;;;;;;10.98;4.07;;;12.40;99.90;;;;;;5095288;28;20593;-64
2022/11/02 08:34:23;;;;;;;11.90;3.67;;;12.40;99.90;;;;;;5095246;28;20212;-65
2022/11/02 08:36:48;;;;;;;10.30;3.65;;;12.50;99.90;;;;;;5095139;28;20197;-65
2022/11/02 08:39:14;;;;;;;11.33;3.63;;;12.50;99.90;;;;;;5095035;28;20212;-64
2022/11/02 08:41:40;;;;;;;11.63;3.95;;;12.50;99.90;;;;;;5095333;28;20207;-65
2022/11/02 08:44:05;;;;;;;11.07;3.50;;;12.60;99.90;;;;;;5094870;28;20189;-65
2022/11/02 08:46:31;;;;;;;9.25;3.20;;;12.70;99.90;;;;;;5095025;28;20197;-65
2022/11/02 08:48:57;;;;;;;10.52;3.78;;;12.80;99.90;;;;;;5094908;28;20665;-66
2022/11/02 08:51:23;;;;;;;12.05;4.30;;;12.80;99.90;;;;;;5094449;28;20180;-65
2022/11/02 08:53:48;;;;;;;8.70;3.80;;;12.70;99.90;;;;;;5094789;28;20169;-65
2022/11/02 08:56:14;;;;;;;12.00;4.15;;;12.70;99.90;;;;;;5094715;28;20193;-65
2022/11/02 08:58:40;;;;;;;11.67;3.60;;;12.70;99.90;;;;;;5095059;28;20184;-65
2022/11/02 09:01:05;;;;;;;11.77;4.00;;;12.70;99.90;;;;;;5094983;28;20264;-65
2022/11/02 09:03:31;;;;;;;12.43;4.30;;;12.70;99.90;;;;;;5094971;28;20241;-65
2022/11/02 09:05:59;;;;;;;16.00;3.53;;;12.80;99.90;;;;;;5094821;28;20193;-64
2022/11/02 09:08:26;;;;;;;8.52;3.80;;;12.90;99.90;;;;;;5093202;28;20284;-65
2022/11/02 09:10:52;;;;;;;12.17;3.63;;;13.00;99.90;;;;;;5094512;28;20218;-65
2022/11/02 09:13:23;;;;;;;7.70;4.10;;;13.10;99.90;;;;;;5094402;28;20188;-65
2022/11/02 09:15:52;;;;;;;11.90;4.07;;;13.00;99.90;;;;;;5094602;28;20189;-65
2022/11/02 09:18:17;;;;;;;10.70;4.00;;;13.00;99.90;;;;;;5094404;28;20556;-64
2022/11/02 09:20:44;;;;;;;10.47;4.03;;;12.90;99.90;;;;;;5093056;28;20180;-65
2022/11/02 09:23:10;;;;;;;12.00;4.53;;;12.80;99.90;;;;;;5094378;28;20161;-65
2022/11/02 09:25:35;;;;;;;10.33;3.80;;;12.80;99.90;;;;;;5092834;28;20200;-65
2022/11/02 09:28:01;;;;;;;9.13;3.30;;;12.80;99.90;;;;;;5094145;28;20278;-65
2022/11/02 09:30:30;;;;;;;13.88;3.55;;;12.80;99.90;;;;;;5094214;28;20633;-64
2022/11/02 09:33:04;;;;;;;14.70;4.00;;;12.70;99.90;;;;;;5092916;28;20177;-66
2022/11/02 09:35:33;;;;;;;11.07;3.67;;;12.70;99.90;;;;;;5092795;28;20201;-65
2022/11/02 09:38:00;;;;;;;15.23;3.92;;;12.60;99.90;;;;;;5076074;28;20185;-65
2022/11/02 09:40:40;;;;;;;10.38;3.70;;;12.80;99.90;;;;;;5092569;28;20215;-64
2022/11/02 09:43:51;;;;;;;9.35;3.40;;;13.00;99.90;;;;;;5092657;28;20185;-64
2022/11/02 09:46:36;;;;;;;11.93;3.87;;;13.20;99.90;;;;;;5082300;28;20226;-64
2022/11/02 09:49:21;;;;;;;6.90;3.17;;;13.40;99.90;;;;;;5092589;28;20732;-65
2022/11/02 09:51:53;;;;;;;8.10;3.15;;;13.50;99.90;;;;;;5092610;28;20229;-65
2022/11/02 09:54:28;;;;;;;8.40;3.63;;;13.60;99.90;;;;;;5093717;28;20174;-65
2022/11/02 09:56:59;;;;;;;7.35;3.50;;;13.50;99.90;;;;;;5092470;28;20208;-64
2022/11/02 09:59:26;;;;;;;7.10;3.63;;;13.60;99.90;;;;;;5092470;28;20226;-65
2022/11/02 10:02:27;;;;;;;10.52;3.65;;;13.80;99.90;;;;;;5092743;28;20188;-65
2022/11/02 10:05:07;;;;;;;11.13;3.63;;;13.70;99.90;;;;;;5093627;28;20193;-66
2022/11/02 10:07:44;;;;;;;9.95;4.40;;;13.50;99.90;;;;;;5090182;28;20205;-65
2022/11/02 10:10:19;;;;;;;12.93;3.83;;;13.40;99.90;;;;;;5092941;28;20189;-65
2022/11/02 10:13:23;;;;;;;11.30;3.60;;;13.40;99.90;;;;;;5092455;28;20180;-65
2022/11/02 10:15:52;;;;;;;13.02;3.80;;;13.50;99.90;;;;;;5087613;28;20560;-65
2022/11/02 10:18:29;;;;;;;11.18;3.78;;;13.60;99.90;;;;;;5092307;28;20184;-65
2022/11/02 10:21:06;;;;;;;5.70;3.10;;;13.80;99.90;;;;;;5092060;28;20177;-65
2022/11/02 10:23:38;;;;;;;8.32;3.65;;;13.90;99.90;;;;;;5092049;28;20193;-65
2022/11/02 10:26:05;;;;;;;12.55;3.15;;;13.90;99.90;;;;;;5093227;28;20192;-65
2022/11/02 10:28:42;;;;;;;7.45;3.15;;;14.10;99.90;;;;;;5075148;28;20201;-65
2022/11/02 10:31:32;;;;;;;9.18;3.03;;;14.10;99.90;;;;;;5075815;28;20582;-65
2022/11/02 10:34:20;;;;;;;13.68;3.90;;;14.00;99.90;;;;;;5092068;28;20168;-65
2022/11/02 10:36:52;;;;;;;9.23;3.30;;;14.00;99.90;;;;;;5092615;28;20204;-65
2022/11/02 10:39:33;;;;;;;8.85;4.20;;;13.90;99.90;;;;;;5091757;28;20193;-65
2022/11/02 10:42:21;;;;;;;10.27;3.20;;;13.90;99.90;;;;;;5092190;28;20216;-64
2022/11/02 10:45:11;;;;;;;9.85;3.47;;;13.80;99.90;;;;;;5091748;28;20204;-66
2022/11/02 10:47:57;;;;;;;10.02;3.67;;;13.60;99.90;;;;;;5091866;28;20201;-65
2022/11/02 10:50:58;;;;;;;7.35;3.47;;;13.50;99.90;;;;;;5092146;28;20173;-65
2022/11/02 10:53:24;;;;;;;17.50;3.53;;;13.30;99.90;;;;;;5090550;28;20203;-65
2022/11/02 10:56:16;;;;;;;13.00;3.60;;;13.20;99.90;;;;;;5091562;28;20192;-65
2022/11/02 10:59:02;;;;;;;7.10;3.10;;;13.20;99.90;;;;;;5091700;28;20261;-65
2022/11/02 11:01:31;;;;;;;9.95;3.45;;;13.20;99.90;;;;;;5091752;28;20184;-65
2022/11/02 11:04:05;;;;;;;8.85;3.53;;;13.30;99.90;;;;;;5092029;28;20177;-65
2022/11/02 11:06:42;;;;;;;8.40;3.83;;;13.20;99.90;;;;;;5091665;28;20201;-64
2022/11/02 11:09:29;;;;;;;8.23;3.00;;;13.30;99.90;;;;;;5093004;28;20185;-65
2022/11/02 11:12:02;;;;;;;7.53;3.47;;;13.30;99.90;;;;;;5091832;28;20198;-65
2022/11/02 11:14:53;;;;;;;12.38;3.42;;;13.40;99.90;;;;;;5096759;28;20169;-65
2022/11/02 11:17:37;;;;;;;13.93;3.63;;;13.50;99.90;;;;;;5095534;28;20166;-65
2022/11/02 11:20:24;;;;;;;8.88;3.78;;;13.80;99.90;;;;;;5095561;28;20177;-65
2022/11/02 11:23:19;;;;;;;13.57;3.67;;;14.00;99.90;;;;;;5095484;28;20176;-65
2022/11/02 11:26:08;;;;;;;8.70;3.38;;;14.40;99.90;;;;;;5097009;28;20193;-65
2022/11/02 11:28:55;;;;;;;19.30;3.28;;;14.40;99.90;;;;;;5095284;28;20562;-65
2022/11/02 11:31:27;;;;;;;8.70;3.33;;;14.10;99.90;;;;;;5097312;28;20559;-65
2022/11/02 11:33:58;;;;;;;13.82;3.40;;;14.00;99.90;;;;;;5095594;28;20177;-65
2022/11/02 11:36:31;;;;;;;6.93;2.90;;;14.20;99.90;;;;;;5095194;28;20196;-65
2022/11/02 11:39:21;;;;;;;8.85;3.00;;;14.40;99.90;;;;;;5095086;28;20173;-65
2022/11/02 11:41:48;;;;;;;9.68;3.38;;;14.40;99.90;;;;;;5075839;28;20193;-65
2022/11/02 11:44:18;;;;;;;9.32;3.58;;;14.50;99.90;;;;;;5057568;28;20194;-70
2022/11/02 11:46:54;;;;;;;5.10;2.90;;;14.70;99.90;;;;;;5058386;28;20205;-65
2022/11/02 11:49:33;;;;;;;11.93;3.53;;;15.00;99.90;;;;;;5075827;28;20601;-65
2022/11/02 11:52:02;;;;;;;7.68;3.05;;;15.10;99.90;;;;;;5076178;28;20579;-65
2022/11/02 11:54:30;;;;;;;9.35;3.45;;;15.20;99.90;;;;;;5074417;28;20588;-66
2022/11/02 11:57:30;;;;;;;8.88;3.05;;;15.00;99.90;;;;;;5074497;28;20610;-65
2022/11/02 12:00:21;;;;;;;6.95;3.15;;;15.10;99.90;;;;;;5074485;28;20174;-65
2022/11/02 12:03:09;;;;;;;9.40;3.13;;;15.20;99.90;;;;;;5075850;28;20229;-65
2022/11/02 12:06:31;;;;;;;11.55;3.50;;;15.20;99.90;;;;;;5077070;28;20210;-65
2022/11/02 12:09:24;;;;;;;8.27;3.33;;;15.10;99.90;;;;;;5074030;28;20576;-65
2022/11/02 12:11:53;;;;;;;12.75;3.20;;;15.20;99.90;;;;;;5054686;28;20202;-66
2022/11/02 12:14:38;;;;;;;10.00;3.03;;;15.40;99.90;;;;;;5055466;28;20173;-66
2022/11/02 12:17:19;;;;;;;9.02;2.88;;;15.40;99.90;;;;;;5053924;28;20195;-65
2022/11/02 12:20:09;;;;;;;7.50;3.65;;;15.20;99.90;;;;;;5054092;28;20520;-65
2022/11/02 12:23:09;;;;;;;7.05;3.40;;;15.40;99.90;;;;;;5054162;28;20175;-66
2022/11/02 12:26:12;;;;;;;12.75;3.35;;;15.20;99.90;;;;;;5052929;28;20244;-65
2022/11/02 12:29:11;;;;;;;7.60;3.20;;;15.50;99.90;;;;;;5054008;28;20674;-65
2022/11/02 12:31:42;;;;;;;6.93;2.88;;;15.70;99.90;;;;;;5055846;28;20217;-65
2022/11/02 12:34:36;;;;;;;5.40;2.83;;;15.90;99.90;;;;;;5055244;28;20170;-65
2022/11/02 12:37:47;;;;;;;8.32;3.40;;;15.90;99.90;;;;;;5053696;28;20229;-65
2022/11/02 12:40:34;;;;;;;7.68;2.95;;;16.10;99.90;;;;;;5053403;28;20216;-65
2022/11/02 12:43:27;;;;;;;6.88;3.03;;;15.60;99.90;;;;;;5070079;28;20181;-65
2022/11/02 12:46:12;;;;;;;6.82;3.10;;;15.20;99.90;;;;;;5073512;28;20311;-66
2022/11/02 12:48:56;;;;;;;10.52;3.20;;;15.10;99.90;;;;;;5074681;28;20197;-65
2022/11/02 12:51:37;;;;;;;8.05;2.80;;;15.30;99.90;;;;;;5073792;28;20516;-65
2022/11/02 12:54:10;;;;;;;9.25;3.20;;;15.40;99.90;;;;;;5073390;28;20580;-65
2022/11/02 12:57:08;;;;;;;9.85;3.33;;;15.30;99.90;;;;;;5073461;28;20611;-65
2022/11/02 12:59:41;;;;;;;11.93;3.40;;;15.20;99.90;;;;;;5072960;28;20681;-66
2022/11/02 13:02:31;;;;;;;8.00;3.25;;;15.30;99.90;;;;;;5073399;28;20178;-66
2022/11/02 13:05:25;;;;;;;8.32;3.42;;;15.50;99.90;;;;;;5071323;28;20227;-66
2022/11/02 13:08:10;;;;;;;8.07;2.83;;;15.40;99.90;;;;;;5073198;28;20232;-65
2022/11/02 13:11:15;;;;;;;9.52;3.20;;;15.40;99.90;;;;;;5075033;28;20161;-65
2022/11/02 13:13:52;;;;;;;9.68;3.25;;;15.50;99.90;;;;;;5053488;28;20225;-65
2022/11/02 13:16:52;;;;;;;7.88;3.10;;;15.40;99.90;;;;;;5052984;28;20199;-65
2022/11/02 13:19:40;;;;;;;7.97;3.38;;;15.30;99.90;;;;;;5057116;28;20175;-65
2022/11/02 13:22:22;;;;;;;8.93;3.20;;;15.20;99.90;;;;;;5052909;28;20220;-65